Time;durP1;ratioP1;P1;durP2;ratioP2;P2;SDS_P1;SDS_P2;PMS_P1;PMS_P2;Temp;Humidity;BMP_temperature;BMP_pressure;BME280_temperature;BME280_humidity;BME280_pressure;Samples;Min_cycle;Max_cycle;Signal;HPM_P1;HPM_P2
2021/01/02 00:00:50;;;;;;;7.35;6.65;;;;;;;12.81;nan;100700.06;4959524;28;99705;-72
2021/01/02 00:03:50;;;;;;;8.10;6.30;;;;;;;12.84;nan;100693.19;4959674;28;97167;-71
2021/01/02 00:06:24;;;;;;;7.72;6.60;;;;;;;12.88;nan;100695.06;4924841;28;97053;-70
2021/01/02 00:08:53;;;;;;;8.30;6.72;;;;;;;12.91;nan;100710.16;4958979;28;98136;-72
2021/01/02 00:11:28;;;;;;;8.30;7.18;;;;;;;12.92;nan;100706.66;4943395;28;100311;-71
2021/01/02 00:14:14;;;;;;;8.40;7.32;;;;;;;12.96;nan;100708.59;4977377;28;97662;-71
2021/01/02 00:17:09;;;;;;;7.93;6.70;;;;;;;12.96;nan;100700.69;4976014;28;97407;-71
2021/01/02 00:20:15;;;;;;;7.85;7.05;;;;;;;12.98;nan;100706.91;4960327;28;98448;-70
2021/01/02 00:22:47;;;;;;;7.28;6.57;;;;;;;13.00;nan;100711.44;4962090;28;99009;-71
2021/01/02 00:25:16;;;;;;;6.60;5.47;;;;;;;12.88;nan;100708.25;4980795;28;97585;-72
2021/01/02 00:28:17;;;;;;;6.30;5.70;;;;;;;12.76;nan;100704.22;4981202;28;97137;-71
2021/01/02 00:30:58;;;;;;;6.18;5.13;;;;;;;12.69;nan;100702.16;4980025;28;98465;-71
2021/01/02 00:34:21;;;;;;;7.20;6.50;;;;;;;12.76;nan;100709.47;4961758;28;99263;-71
2021/01/02 00:36:55;;;;;;;7.10;6.40;;;;;;;12.80;nan;100714.06;4981508;28;98048;-71
2021/01/02 00:39:32;;;;;;;6.25;5.72;;;;;;;12.69;nan;100702.16;4981756;28;97068;-72
2021/01/02 00:42:02;;;;;;;6.57;6.03;;;;;;;12.61;nan;100720.25;4963664;28;97793;-70
2021/01/02 00:44:30;;;;;;;6.47;5.82;;;;;;;12.56;nan;100715.63;4980158;28;98523;-70
2021/01/02 00:46:59;;;;;;;8.02;7.22;;;;;;;12.63;nan;100717.69;4980527;28;98042;-71
2021/01/02 00:49:28;;;;;;;6.07;5.50;;;;;;;12.50;nan;100710.97;4963840;28;97169;-71
2021/01/02 00:52:02;;;;;;;6.60;5.88;;;;;;;12.42;nan;100716.75;4963717;28;100933;-71
2021/01/02 00:54:36;;;;;;;7.00;6.40;;;;;;;12.30;nan;100721.47;4980059;28;97971;-71
2021/01/02 00:57:04;;;;;;;5.85;5.32;;;;;;;12.25;nan;100723.88;4962771;28;96935;-70
2021/01/02 01:00:07;;;;;;;6.75;6.22;;;;;;;12.19;nan;100723.59;4963800;28;97157;-71
2021/01/02 01:03:03;;;;;;;5.85;5.35;;;;;;;12.12;nan;100719.81;4974259;28;99564;-71
2021/01/02 01:05:36;;;;;;;6.38;5.45;;;;;;;12.08;nan;100719.56;4963646;28;98646;-71
2021/01/02 01:08:24;;;;;;;6.68;5.80;;;;;;;12.04;nan;100723.78;4980207;28;98273;-72
2021/01/02 01:11:13;;;;;;;7.60;6.78;;;;;;;12.11;nan;100725.00;4979357;28;98094;-71
2021/01/02 01:13:41;;;;;;;8.70;6.85;;;;;;;12.20;nan;100728.06;4945890;28;101972;-71
2021/01/02 01:16:09;;;;;;;7.60;6.88;;;;;;;12.09;nan;100727.56;4981536;28;99069;-72
2021/01/02 01:18:44;;;;;;;7.40;6.70;;;;;;;12.17;nan;100723.53;4960840;28;98076;-71
2021/01/02 01:21:15;;;;;;;7.95;7.15;;;;;;;12.23;nan;100737.00;4979692;28;97316;-71
2021/01/02 01:24:03;;;;;;;7.80;6.97;;;;;;;12.27;nan;100738.03;4979622;28;99835;-72
2021/01/02 01:26:38;;;;;;;8.70;7.18;;;;;;;12.30;nan;100737.28;4979603;28;99317;-70
2021/01/02 01:29:06;;;;;;;7.88;7.07;;;;;;;12.33;nan;100737.41;4960807;28;97017;-72
2021/01/02 01:31:43;;;;;;;8.15;7.35;;;;;;;12.37;nan;100742.00;4961740;28;97119;-72
2021/01/02 01:34:12;;;;;;;8.63;7.73;;;;;;;12.39;nan;100740.34;4977734;28;99999;-72
2021/01/02 01:36:42;;;;;;;8.88;7.93;;;;;;;12.37;nan;100744.63;4978356;28;101980;-74
2021/01/02 01:39:12;;;;;;;7.05;6.45;;;;;;;12.24;nan;100744.03;4963641;28;97206;-72
2021/01/02 01:41:43;;;;;;;8.48;7.57;;;;;;;12.34;nan;100749.72;4961956;28;97265;-72
2021/01/02 01:44:38;;;;;;;8.98;8.00;;;;;;;12.36;nan;100748.06;4979639;28;98022;-72
2021/01/02 01:47:13;;;;;;;8.60;6.85;;;;;;;12.20;nan;100750.03;4981090;28;102013;-70
2021/01/02 01:50:12;;;;;;;6.50;6.00;;;;;;;12.08;nan;100748.53;4980225;28;97060;-72
2021/01/02 01:53:06;;;;;;;7.10;6.15;;;;;;;12.05;nan;100764.19;4978209;28;97333;-72
2021/01/02 01:55:57;;;;;;;7.57;6.38;;;;;;;11.99;nan;100759.56;4947792;28;98071;-71
2021/01/02 01:59:02;;;;;;;7.40;6.75;;;;;;;11.97;nan;100761.22;4979380;28;98013;-72
2021/01/02 02:01:36;;;;;;;6.78;6.15;;;;;;;11.93;nan;100767.16;4979448;28;98000;-71
2021/01/02 02:04:43;;;;;;;8.15;7.25;;;;;;;12.00;nan;100761.38;4978855;28;97141;-71
2021/01/02 02:07:15;;;;;;;7.07;6.30;;;;;;;11.92;nan;100759.19;4980756;28;97894;-72
2021/01/02 02:09:44;;;;;;;9.00;6.40;;;;;;;11.86;nan;100764.19;4980438;28;100365;-71
2021/01/02 02:12:20;;;;;;;6.90;6.25;;;;;;;11.78;nan;100763.81;4979974;28;97246;-72
2021/01/02 02:15:07;;;;;;;7.35;6.65;;;;;;;11.74;nan;100764.50;4980572;28;97883;-71
2021/01/02 02:17:45;;;;;;;6.55;5.95;;;;;;;11.69;nan;100766.00;4979654;28;97380;-71
2021/01/02 02:20:16;;;;;;;7.45;6.78;;;;;;;11.67;nan;100762.41;4980601;28;97961;-71
2021/01/02 02:22:44;;;;;;;10.88;8.57;;;;;;;11.74;nan;100764.50;4960648;28;97273;-71
2021/01/02 02:25:13;;;;;;;8.18;7.18;;;;;;;11.69;nan;100765.09;4962740;28;97443;-72
2021/01/02 02:27:42;;;;;;;8.85;6.85;;;;;;;11.64;nan;100761.31;4960161;28;97892;-70
2021/01/02 02:30:15;;;;;;;6.60;6.00;;;;;;;11.58;nan;100755.75;4962493;28;99103;-70
2021/01/02 02:32:44;;;;;;;6.93;5.97;;;;;;;11.54;nan;100759.03;4962431;28;97892;-70
2021/01/02 02:35:30;;;;;;;8.63;7.73;;;;;;;11.65;nan;100764.03;4977350;28;97636;-72
2021/01/02 02:37:57;;;;;;;8.43;7.63;;;;;;;11.76;nan;100770.72;4977966;28;97941;-70
2021/01/02 02:40:25;;;;;;;7.45;6.75;;;;;;;11.68;nan;100772.06;4980018;28;101265;-72
2021/01/02 02:42:54;;;;;;;9.65;8.25;;;;;;;11.78;nan;100771.72;4944011;28;97373;-71
2021/01/02 02:45:24;;;;;;;7.38;6.68;;;;;;;11.69;nan;100770.34;4979190;28;97649;-71
2021/01/02 02:47:54;;;;;;;7.85;6.97;;;;;;;11.63;nan;100765.66;4979734;28;98735;-72
2021/01/02 02:50:24;;;;;;;6.65;6.13;;;;;;;11.59;nan;100774.22;4979510;28;97830;-72
2021/01/02 02:53:02;;;;;;;8.63;6.53;;;;;;;11.58;nan;100774.16;4978552;28;97592;-71
2021/01/02 02:55:30;;;;;;;7.05;6.45;;;;;;;11.56;nan;100771.47;4979167;28;97363;-72
2021/01/02 02:57:59;;;;;;;8.45;7.65;;;;;;;11.50;nan;100768.53;4978298;28;100578;-72
2021/01/02 03:00:28;;;;;;;7.63;6.82;;;;;;;11.49;nan;100776.34;4961831;28;99188;-72
2021/01/02 03:02:56;;;;;;;6.57;5.95;;;;;;;11.46;nan;100777.06;4974021;28;97624;-72
2021/01/02 03:05:24;;;;;;;7.72;6.82;;;;;;;11.43;nan;100769.03;4978636;28;96847;-72
2021/01/02 03:07:51;;;;;;;6.88;6.30;;;;;;;11.39;nan;100774.97;4978129;28;100588;-72
2021/01/02 03:10:20;;;;;;;7.30;6.53;;;;;;;11.36;nan;100771.28;4978366;28;97766;-72
2021/01/02 03:12:49;;;;;;;7.03;6.35;;;;;;;11.36;nan;100776.56;4979377;28;97460;-70
2021/01/02 03:15:19;;;;;;;7.05;6.35;;;;;;;11.30;nan;100774.53;4962886;28;97073;-72
2021/01/02 03:17:48;;;;;;;7.00;6.40;;;;;;;11.30;nan;100768.34;4976944;28;97507;-70
2021/01/02 03:20:17;;;;;;;7.65;6.85;;;;;;;11.30;nan;100773.59;4978206;28;98019;-70
2021/01/02 03:22:46;;;;;;;7.03;6.43;;;;;;;11.29;nan;100778.00;4961281;28;97270;-74
2021/01/02 03:25:15;;;;;;;7.28;6.57;;;;;;;11.25;nan;100776.03;4980267;28;96875;-71
2021/01/02 03:27:43;;;;;;;7.55;6.85;;;;;;;11.26;nan;100776.94;4977504;28;99033;-71
2021/01/02 03:30:12;;;;;;;8.85;6.43;;;;;;;11.27;nan;100777.00;4961629;28;97707;-71
2021/01/02 03:32:41;;;;;;;6.72;6.03;;;;;;;11.27;nan;100778.72;4978978;28;97342;-74
2021/01/02 03:35:11;;;;;;;8.93;7.25;;;;;;;11.25;nan;100778.66;4961493;28;97276;-71
2021/01/02 03:37:40;;;;;;;6.95;6.35;;;;;;;11.23;nan;100780.31;4978212;28;98954;-71
2021/01/02 03:40:09;;;;;;;7.72;6.93;;;;;;;11.23;nan;100773.31;4945517;28;98910;-71
2021/01/02 03:42:55;;;;;;;8.50;6.60;;;;;;;11.23;nan;100780.31;4976900;28;97270;-71
2021/01/02 03:45:22;;;;;;;7.57;6.82;;;;;;;11.21;nan;100779.31;4961302;28;98907;-70
2021/01/02 03:47:51;;;;;;;7.25;6.55;;;;;;;11.20;nan;100790.69;4977450;28;97447;-71
2021/01/02 03:50:20;;;;;;;8.57;6.97;;;;;;;11.16;nan;100783.44;4978988;28;97052;-71
2021/01/02 03:52:47;;;;;;;7.75;7.03;;;;;;;11.13;nan;100788.56;4979312;28;98283;-72
2021/01/02 03:55:15;;;;;;;7.97;6.60;;;;;;;11.15;nan;100779.91;4981407;28;97261;-72
2021/01/02 03:57:43;;;;;;;7.75;6.75;;;;;;;11.15;nan;100779.91;4963984;28;99237;-71
2021/01/02 04:00:13;;;;;;;7.18;6.47;;;;;;;11.16;nan;100783.44;4982929;28;99481;-70
2021/01/02 04:02:40;;;;;;;7.68;6.88;;;;;;;11.17;nan;100782.63;4963679;28;97239;-71
2021/01/02 04:05:09;;;;;;;7.65;6.85;;;;;;;11.16;nan;100783.44;4983246;28;97529;-70
2021/01/02 04:07:37;;;;;;;8.43;7.47;;;;;;;11.15;nan;100784.25;4981220;28;99232;-71
2021/01/02 04:10:06;;;;;;;6.75;6.15;;;;;;;11.12;nan;100776.22;4982923;28;98129;-70
2021/01/02 04:12:34;;;;;;;10.82;7.47;;;;;;;11.11;nan;100775.31;4980914;28;97295;-71
2021/01/02 04:15:02;;;;;;;7.55;6.13;;;;;;;11.10;nan;100778.78;4981928;28;97487;-70
2021/01/02 04:17:29;;;;;;;6.88;6.18;;;;;;;11.10;nan;100780.50;4980731;28;100271;-71
2021/01/02 04:19:57;;;;;;;7.82;7.03;;;;;;;11.10;nan;100772.63;4981160;28;97504;-69
2021/01/02 04:22:24;;;;;;;7.60;6.85;;;;;;;11.09;nan;100782.22;4963679;28;97303;-70
2021/01/02 04:24:52;;;;;;;7.70;6.78;;;;;;;11.07;nan;100775.09;4982714;28;96638;-69
2021/01/02 04:27:20;;;;;;;7.35;6.63;;;;;;;11.05;nan;100782.91;4980729;28;97861;-70
2021/01/02 04:29:47;;;;;;;7.18;6.45;;;;;;;11.06;nan;100789.06;4980365;28;99083;-71
2021/01/02 04:32:15;;;;;;;7.10;6.43;;;;;;;11.06;nan;100789.97;4982087;28;97545;-72
2021/01/02 04:34:42;;;;;;;6.70;6.13;;;;;;;11.07;nan;100790.88;4981957;28;97479;-71
2021/01/02 04:37:10;;;;;;;7.68;6.60;;;;;;;11.09;nan;100797.13;4981554;28;101504;-71
2021/01/02 04:39:37;;;;;;;9.48;6.93;;;;;;;11.06;nan;100794.31;4963419;28;99666;-71
2021/01/02 04:42:05;;;;;;;8.45;7.25;;;;;;;11.06;nan;100800.47;4963705;28;97480;-70
2021/01/02 04:44:33;;;;;;;11.30;6.80;;;;;;;11.07;nan;100798.75;4981027;28;99682;-72
2021/01/02 04:47:01;;;;;;;7.28;6.32;;;;;;;11.09;nan;100799.75;4963423;28;97910;-72
2021/01/02 04:49:29;;;;;;;8.77;6.55;;;;;;;11.08;nan;100805.81;4982412;28;97999;-72
2021/01/02 04:52:00;;;;;;;10.50;7.88;;;;;;;11.07;nan;100807.56;4981775;28;97198;-71
2021/01/02 04:54:29;;;;;;;9.82;7.13;;;;;;;11.10;nan;100807.69;4982905;28;97519;-71
2021/01/02 04:56:56;;;;;;;9.15;7.63;;;;;;;11.08;nan;100805.81;4980572;28;97869;-71
2021/01/02 04:59:26;;;;;;;9.50;7.13;;;;;;;11.07;nan;100811.91;4981216;28;98089;-71
2021/01/02 05:01:54;;;;;;;9.00;6.95;;;;;;;11.09;nan;100811.13;4975937;28;98055;-71
2021/01/02 05:04:22;;;;;;;7.60;6.82;;;;;;;11.07;nan;100815.44;4956482;28;98227;-71
2021/01/02 05:06:50;;;;;;;7.50;6.68;;;;;;;11.05;nan;100816.19;4962263;28;97293;-72
2021/01/02 05:09:18;;;;;;;7.15;6.43;;;;;;;11.04;nan;100820.53;4977731;28;97781;-72
2021/01/02 05:11:46;;;;;;;9.48;6.78;;;;;;;11.05;nan;100810.91;4980924;28;97452;-71
2021/01/02 05:14:13;;;;;;;8.52;6.82;;;;;;;11.06;nan;100810.06;4964090;28;97073;-71
2021/01/02 05:16:42;;;;;;;8.80;6.95;;;;;;;11.05;nan;100824.06;4963151;28;98308;-71
2021/01/02 05:19:11;;;;;;;7.45;6.75;;;;;;;11.05;nan;100824.06;4979628;28;96938;-71
2021/01/02 05:21:44;;;;;;;7.43;6.60;;;;;;;11.05;nan;100808.28;4981149;28;97765;-71
2021/01/02 05:24:13;;;;;;;8.23;7.03;;;;;;;11.04;nan;100823.16;4981471;28;96997;-71
2021/01/02 05:26:43;;;;;;;7.57;6.78;;;;;;;11.05;nan;100819.72;4962437;28;98133;-71
2021/01/02 05:29:15;;;;;;;6.93;6.25;;;;;;;11.08;nan;100819.88;4962404;28;98223;-71
2021/01/02 05:31:45;;;;;;;7.50;6.70;;;;;;;11.07;nan;100812.81;4963508;28;97211;-71
2021/01/02 05:34:16;;;;;;;10.57;7.25;;;;;;;11.10;nan;100819.94;4963844;28;98538;-71
2021/01/02 05:36:43;;;;;;;7.85;7.05;;;;;;;11.09;nan;100824.28;4961721;28;97783;-71
2021/01/02 05:39:12;;;;;;;8.65;6.57;;;;;;;11.08;nan;100824.22;4981204;28;97977;-70
2021/01/02 05:41:58;;;;;;;8.68;7.32;;;;;;;11.04;nan;100831.03;4980795;28;98338;-71
2021/01/02 05:44:32;;;;;;;6.82;6.13;;;;;;;11.02;nan;100827.41;4963138;28;97325;-70
2021/01/02 05:47:01;;;;;;;8.13;6.82;;;;;;;11.07;nan;100830.31;4980250;28;97707;-71
2021/01/02 05:49:30;;;;;;;6.38;5.72;;;;;;;11.09;nan;100836.56;4979527;28;97543;-70
2021/01/02 05:51:59;;;;;;;7.57;6.85;;;;;;;11.05;nan;100838.13;4963208;28;97294;-71
2021/01/02 05:54:29;;;;;;;7.00;6.32;;;;;;;11.02;nan;100839.69;4961559;28;97417;-71
2021/01/02 05:56:59;;;;;;;7.72;6.25;;;;;;;11.04;nan;100838.00;4980812;28;98164;-71
2021/01/02 05:59:37;;;;;;;6.78;6.13;;;;;;;11.04;nan;100846.81;4979807;28;97828;-70
2021/01/02 06:02:25;;;;;;;10.02;6.75;;;;;;;11.03;nan;100847.66;4979574;28;97052;-70
2021/01/02 06:05:11;;;;;;;7.45;6.68;;;;;;;11.03;nan;100852.00;4982048;28;97038;-71
2021/01/02 06:07:40;;;;;;;7.80;7.03;;;;;;;10.98;nan;100856.13;4979653;28;97956;-71
2021/01/02 06:10:10;;;;;;;7.72;6.47;;;;;;;11.00;nan;100849.22;4978563;28;98015;-70
2021/01/02 06:12:38;;;;;;;7.35;6.65;;;;;;;11.02;nan;100856.34;4979802;28;97754;-70
2021/01/02 06:15:08;;;;;;;22.52;12.65;;;;;;;11.05;nan;100858.22;4963345;28;97793;-71
2021/01/02 06:17:37;;;;;;;11.80;9.00;;;;;;;11.05;nan;100860.88;4979945;28;98126;-72
2021/01/02 06:20:07;;;;;;;13.27;7.25;;;;;;;11.04;nan;100859.03;4961647;28;97910;-71
2021/01/02 06:22:35;;;;;;;7.50;6.70;;;;;;;11.06;nan;100867.91;4962113;28;97924;-70
2021/01/02 06:25:05;;;;;;;8.10;6.53;;;;;;;11.05;nan;100861.78;4980464;28;98162;-69
2021/01/02 06:27:33;;;;;;;8.82;6.72;;;;;;;11.04;nan;100866.91;4960581;28;97537;-72
2021/01/02 06:30:01;;;;;;;6.97;6.28;;;;;;;11.03;nan;100867.75;4980095;28;98019;-72
2021/01/02 06:32:30;;;;;;;8.93;6.50;;;;;;;11.01;nan;100870.31;4980359;28;97455;-71
2021/01/02 06:35:21;;;;;;;8.57;7.22;;;;;;;11.01;nan;100870.31;4960392;28;97073;-71
2021/01/02 06:38:08;;;;;;;7.40;6.18;;;;;;;11.00;nan;100878.13;4965643;28;98837;-71
2021/01/02 06:40:37;;;;;;;7.70;6.63;;;;;;;10.95;nan;100872.59;4980681;28;99248;-71
2021/01/02 06:43:07;;;;;;;7.40;6.53;;;;;;;10.94;nan;100883.03;4978879;28;97742;-71
2021/01/02 06:45:57;;;;;;;10.48;6.88;;;;;;;10.94;nan;100880.41;4961483;28;97658;-72
2021/01/02 06:48:42;;;;;;;7.20;6.47;;;;;;;10.89;nan;100874.91;4960808;28;99086;-71
2021/01/02 06:51:30;;;;;;;7.63;6.95;;;;;;;10.90;nan;100883.69;4978421;28;99188;-71
2021/01/02 06:54:03;;;;;;;9.52;7.03;;;;;;;10.90;nan;100894.22;4980003;28;97847;-71
2021/01/02 06:56:35;;;;;;;6.97;6.38;;;;;;;10.89;nan;100890.66;4980358;28;96913;-71
2021/01/02 06:59:04;;;;;;;7.43;6.68;;;;;;;10.91;nan;100893.41;4960731;28;99275;-69
2021/01/02 07:01:42;;;;;;;8.00;7.20;;;;;;;10.89;nan;100901.19;4979926;28;98000;-70
2021/01/02 07:04:11;;;;;;;7.10;6.40;;;;;;;10.88;nan;100895.84;4962645;28;97673;-70
2021/01/02 07:06:40;;;;;;;9.77;7.07;;;;;;;10.88;nan;100903.75;4979441;28;96915;-71
2021/01/02 07:09:27;;;;;;;7.18;6.47;;;;;;;10.88;nan;100906.38;4979559;28;98337;-70
2021/01/02 07:12:15;;;;;;;7.88;7.13;;;;;;;10.86;nan;100901.03;4962283;28;97977;-71
2021/01/02 07:14:44;;;;;;;8.93;6.72;;;;;;;10.84;nan;100909.63;4962999;28;97458;-71
2021/01/02 07:17:22;;;;;;;8.10;7.05;;;;;;;10.87;nan;100907.19;4963126;28;97544;-71
2021/01/02 07:19:50;;;;;;;6.85;5.93;;;;;;;10.86;nan;100902.75;4977210;28;97559;-73
2021/01/02 07:22:27;;;;;;;7.60;6.60;;;;;;;10.85;nan;100906.22;4961528;28;99074;-71
2021/01/02 07:25:20;;;;;;;9.25;6.55;;;;;;;10.89;nan;100911.69;4979053;28;98208;-71
2021/01/02 07:27:47;;;;;;;8.15;6.38;;;;;;;10.93;nan;100907.53;4978419;28;96843;-70
2021/01/02 07:30:16;;;;;;;7.72;6.93;;;;;;;10.98;nan;100911.31;4961200;28;99100;-70
2021/01/02 07:32:44;;;;;;;9.32;8.02;;;;;;;10.96;nan;100913.84;4977669;28;98366;-71
2021/01/02 07:35:13;;;;;;;9.00;7.53;;;;;;;10.97;nan;100920.91;4979041;28;96872;-71
2021/01/02 07:37:42;;;;;;;8.48;6.97;;;;;;;10.99;nan;100921.91;4960394;28;97344;-70
2021/01/02 07:40:12;;;;;;;12.35;7.30;;;;;;;10.99;nan;100934.13;4960863;28;98831;-70
2021/01/02 07:42:41;;;;;;;9.57;7.70;;;;;;;11.00;nan;100925.44;4959748;28;99099;-70
2021/01/02 07:45:11;;;;;;;8.75;6.82;;;;;;;10.98;nan;100925.31;4961646;28;97373;-71
2021/01/02 07:47:40;;;;;;;10.43;7.93;;;;;;;10.98;nan;100929.72;4978358;28;97903;-71
2021/01/02 07:50:09;;;;;;;9.43;7.68;;;;;;;10.98;nan;100933.22;4961558;28;100432;-71
2021/01/02 07:52:57;;;;;;;9.73;7.70;;;;;;;10.98;nan;100934.97;4978223;28;97618;-72
2021/01/02 07:55:26;;;;;;;8.45;7.38;;;;;;;10.98;nan;100938.47;4978290;28;97698;-71
2021/01/02 07:57:53;;;;;;;10.25;8.15;;;;;;;10.98;nan;100943.72;4977205;28;97925;-71
2021/01/02 08:00:23;;;;;;;9.43;8.40;;;;;;;10.99;nan;100948.19;4961385;28;99176;-69
2021/01/02 08:02:50;;;;;;;8.90;7.82;;;;;;;11.04;nan;100944.06;4977813;28;97986;-71
2021/01/02 08:05:22;;;;;;;10.57;7.90;;;;;;;11.06;nan;100941.50;4975631;28;96849;-71
2021/01/02 08:07:53;;;;;;;10.18;8.00;;;;;;;11.11;nan;100951.47;4977502;28;97839;-71
2021/01/02 08:10:22;;;;;;;9.43;7.70;;;;;;;11.13;nan;100948.94;4961157;28;97785;-71
2021/01/02 08:12:51;;;;;;;8.32;7.22;;;;;;;11.13;nan;100959.44;4977620;28;98400;-70
2021/01/02 08:15:26;;;;;;;11.68;7.55;;;;;;;11.17;nan;100957.06;4959924;28;97317;-71
2021/01/02 08:17:54;;;;;;;8.38;7.57;;;;;;;11.19;nan;100958.03;4960538;28;97736;-71
2021/01/02 08:20:21;;;;;;;9.70;7.20;;;;;;;11.24;nan;100959.19;4959766;28;98090;-72
2021/01/02 08:22:49;;;;;;;9.55;7.25;;;;;;;11.25;nan;100965.34;4959603;28;97539;-69
2021/01/02 08:25:18;;;;;;;8.80;7.22;;;;;;;11.28;nan;100956.75;4978911;28;97417;-70
2021/01/02 08:27:48;;;;;;;9.52;7.32;;;;;;;11.32;nan;100958.69;4959519;28;97839;-72
2021/01/02 08:30:17;;;;;;;8.73;7.80;;;;;;;11.33;nan;100961.38;4977010;28;97288;-71
2021/01/02 08:32:51;;;;;;;9.02;7.75;;;;;;;11.34;nan;100971.09;4964031;28;98286;-70
2021/01/02 08:35:21;;;;;;;10.05;7.38;;;;;;;11.32;nan;100962.22;4979187;28;97487;-72
2021/01/02 08:37:49;;;;;;;8.63;7.47;;;;;;;11.34;nan;100968.47;4959356;28;97815;-72
2021/01/02 08:40:18;;;;;;;9.35;7.70;;;;;;;11.35;nan;100970.25;4978683;28;102288;-72
2021/01/02 08:42:48;;;;;;;11.38;8.70;;;;;;;11.37;nan;100973.00;4981146;28;98899;-69
2021/01/02 08:45:30;;;;;;;13.88;8.85;;;;;;;11.39;nan;100969.59;4964202;28;97685;-71
2021/01/02 08:48:05;;;;;;;10.13;7.80;;;;;;;11.40;nan;100978.41;4980988;28;97434;-71
2021/01/02 08:50:50;;;;;;;12.85;7.93;;;;;;;11.40;nan;100974.06;4979780;28;97614;-71
2021/01/02 08:53:24;;;;;;;11.48;8.23;;;;;;;11.43;nan;100970.66;4963534;28;98938;-70
2021/01/02 08:55:52;;;;;;;10.02;7.97;;;;;;;11.48;nan;100975.34;4964597;28;97599;-71
2021/01/02 08:58:31;;;;;;;11.30;8.73;;;;;;;11.52;nan;100982.59;4980845;28;97558;-71
2021/01/02 09:00:58;;;;;;;9.00;8.07;;;;;;;11.52;nan;100976.41;4963134;28;98002;-71
2021/01/02 09:03:26;;;;;;;9.45;7.65;;;;;;;11.55;nan;100982.72;4982250;28;99296;-71
2021/01/02 09:05:55;;;;;;;11.77;9.30;;;;;;;11.56;nan;100983.66;4964028;28;98407;-71
2021/01/02 09:08:23;;;;;;;12.15;8.57;;;;;;;11.60;nan;100981.28;4978833;28;97918;-70
2021/01/02 09:10:56;;;;;;;10.93;8.52;;;;;;;11.59;nan;100989.97;4979522;28;97445;-70
2021/01/02 09:13:24;;;;;;;11.30;8.60;;;;;;;11.65;nan;100981.53;4961488;28;98054;-71
2021/01/02 09:15:55;;;;;;;11.57;8.52;;;;;;;11.68;nan;100985.22;4978764;28;97843;-71
2021/01/02 09:18:50;;;;;;;10.55;8.35;;;;;;;11.77;nan;101000.59;4979781;28;97270;-72
2021/01/02 09:21:23;;;;;;;12.82;8.77;;;;;;;11.75;nan;100992.59;4943233;28;96942;-72
2021/01/02 09:23:58;;;;;;;11.05;8.48;;;;;;;11.77;nan;101000.59;4961392;28;97314;-73
2021/01/02 09:26:32;;;;;;;13.18;8.77;;;;;;;11.82;nan;101002.66;4978559;28;97912;-71
2021/01/02 09:29:00;;;;;;;11.32;8.57;;;;;;;11.89;nan;101009.13;4980245;28;97385;-72
2021/01/02 09:31:34;;;;;;;12.70;9.70;;;;;;;11.91;nan;101000.50;4979586;28;100509;-72
2021/01/02 09:34:02;;;;;;;10.10;8.63;;;;;;;11.92;nan;101001.38;4960735;28;99809;-71
2021/01/02 09:36:30;;;;;;;14.23;9.75;;;;;;;11.95;nan;101015.59;4979658;28;97720;-72
2021/01/02 09:38:57;;;;;;;14.25;10.07;;;;;;;11.98;nan;100999.97;4980572;28;97573;-71
2021/01/02 09:41:28;;;;;;;15.57;10.02;;;;;;;11.98;nan;101007.88;4979316;28;97866;-71
2021/01/02 09:43:56;;;;;;;13.60;9.75;;;;;;;12.00;nan;101008.84;4976984;28;97074;-74
2021/01/02 09:46:25;;;;;;;14.65;9.90;;;;;;;12.01;nan;101012.38;4978419;28;97880;-72
2021/01/02 09:48:55;;;;;;;14.52;9.77;;;;;;;12.03;nan;101010.72;4960248;28;97333;-72
2021/01/02 09:51:24;;;;;;;18.83;10.93;;;;;;;12.04;nan;101013.41;4959874;28;97519;-71
2021/01/02 09:53:52;;;;;;;15.30;10.18;;;;;;;12.06;nan;101011.78;4959658;28;98167;-72
2021/01/02 09:56:20;;;;;;;13.70;10.18;;;;;;;12.08;nan;101010.13;4977778;28;97720;-71
2021/01/02 09:58:48;;;;;;;16.67;10.43;;;;;;;12.10;nan;101003.22;4976184;28;97446;-71
2021/01/02 10:01:16;;;;;;;11.88;9.13;;;;;;;12.14;nan;101006.91;4978598;28;98039;-72
2021/01/02 10:03:44;;;;;;;11.15;9.73;;;;;;;12.20;nan;101004.59;4980882;28;97203;-71
2021/01/02 10:06:12;;;;;;;12.50;9.32;;;;;;;12.23;nan;101008.25;4961988;28;96907;-72
2021/01/02 10:08:40;;;;;;;86.82;38.85;;;;;;;12.27;nan;101005.78;4979625;28;97000;-69
2021/01/02 10:11:08;;;;;;;28.98;17.92;;;;;;;12.31;nan;101007.75;4976842;28;100458;-71
2021/01/02 10:13:36;;;;;;;28.30;16.13;;;;;;;12.35;nan;101009.72;4979002;28;97371;-71
2021/01/02 10:16:04;;;;;;;18.42;12.02;;;;;;;12.38;nan;101009.84;4974796;28;97115;-67
2021/01/02 10:18:32;;;;;;;13.95;10.27;;;;;;;12.40;nan;101008.19;4973551;28;96970;-71
2021/01/02 10:21:00;;;;;;;15.57;9.77;;;;;;;12.41;nan;101015.28;4978858;28;99141;-71
2021/01/02 10:23:28;;;;;;;13.05;10.02;;;;;;;12.43;nan;101003.06;4960106;28;98112;-70
2021/01/02 10:25:55;;;;;;;11.80;9.73;;;;;;;12.49;nan;101006.94;4958667;28;97377;-71
2021/01/02 10:28:22;;;;;;;13.00;10.32;;;;;;;12.54;nan;101015.03;4972110;28;97887;-69
2021/01/02 10:30:50;;;;;;;13.10;10.18;;;;;;;12.53;nan;101002.69;4971197;28;99192;-69
2021/01/02 10:33:19;;;;;;;17.83;11.85;;;;;;;12.50;nan;101013.09;4975572;28;99120;-72
2021/01/02 10:35:46;;;;;;;15.10;10.60;;;;;;;12.54;nan;101007.13;4968946;28;97851;-71
2021/01/02 10:38:14;;;;;;;16.63;10.82;;;;;;;12.59;nan;101010.91;4967023;28;98661;-73
2021/01/02 10:40:41;;;;;;;15.38;11.35;;;;;;;12.57;nan;101004.66;4972084;28;98238;-69
2021/01/02 10:43:09;;;;;;;16.63;11.63;;;;;;;12.60;nan;100999.53;4944291;28;97410;-71
2021/01/02 10:45:37;;;;;;;53.58;29.02;;;;;;;12.63;nan;101010.22;4958028;28;98151;-69
2021/01/02 10:48:05;;;;;;;41.40;23.30;;;;;;;12.67;nan;101005.19;4972299;28;98605;-70
2021/01/02 10:50:33;;;;;;;27.73;16.77;;;;;;;12.70;nan;101001.81;4977051;28;98720;-71
2021/01/02 10:53:03;;;;;;;18.65;13.15;;;;;;;12.72;nan;101000.09;4977086;28;97750;-70
2021/01/02 10:55:30;;;;;;;14.88;11.63;;;;;;;12.74;nan;100993.19;4959508;28;97312;-70
2021/01/02 10:57:58;;;;;;;16.38;11.32;;;;;;;12.76;nan;100994.16;4977856;28;97697;-72
2021/01/02 11:00:25;;;;;;;15.23;11.68;;;;;;;12.76;nan;100988.88;4977841;28;97970;-71
2021/01/02 11:02:53;;;;;;;18.58;11.65;;;;;;;12.78;nan;100990.78;4975812;28;97830;-73
2021/01/02 11:05:21;;;;;;;18.70;12.02;;;;;;;12.80;nan;100986.47;4960282;28;97818;-71
2021/01/02 11:07:50;;;;;;;18.52;12.35;;;;;;;12.84;nan;100982.25;4976763;28;97128;-71
2021/01/02 11:10:18;;;;;;;16.67;11.80;;;;;;;12.85;nan;100984.06;4959615;28;98088;-71
2021/01/02 11:12:45;;;;;;;16.88;12.25;;;;;;;12.86;nan;100980.59;4977048;28;98890;-70
2021/01/02 11:15:13;;;;;;;19.55;12.90;;;;;;;12.87;nan;100974.47;4960882;28;99180;-71
2021/01/02 11:17:41;;;;;;;17.48;11.48;;;;;;;12.91;nan;100984.34;4976594;28;97556;-70
2021/01/02 11:20:10;;;;;;;16.50;11.35;;;;;;;12.89;nan;100976.38;4942527;28;98947;-71
2021/01/02 11:22:38;;;;;;;16.30;11.73;;;;;;;12.91;nan;100968.53;4977465;28;99953;-71
2021/01/02 11:25:08;;;;;;;16.80;11.35;;;;;;;12.91;nan;100968.53;4949358;28;97170;-70
2021/01/02 11:27:36;;;;;;;28.50;17.80;;;;;;;12.95;nan;100971.41;4976363;28;97996;-70
2021/01/02 11:30:05;;;;;;;20.52;12.40;;;;;;;12.93;nan;100962.50;4958338;28;97759;-71
2021/01/02 11:32:33;;;;;;;15.68;11.73;;;;;;;12.92;nan;100959.78;4974283;28;97407;-69
2021/01/02 11:35:01;;;;;;;15.40;10.90;;;;;;;12.92;nan;100962.41;4972369;28;97226;-71
2021/01/02 11:37:29;;;;;;;19.73;14.23;;;;;;;12.99;nan;100961.88;4956033;28;98153;-70
2021/01/02 11:40:14;;;;;;;17.67;12.07;;;;;;;13.04;nan;100958.66;4978011;28;98841;-71
2021/01/02 11:42:42;;;;;;;17.60;11.32;;;;;;;13.02;nan;100957.69;4977449;28;98360;-72
2021/01/02 11:45:12;;;;;;;18.60;11.50;;;;;;;13.07;nan;100961.44;4973798;28;97403;-71
2021/01/02 11:47:40;;;;;;;22.58;15.30;;;;;;;13.09;nan;100958.88;4959886;28;97567;-71
2021/01/02 11:50:08;;;;;;;26.38;14.80;;;;;;;13.09;nan;100956.22;4978492;28;99125;-73
2021/01/02 11:52:36;;;;;;;21.05;13.60;;;;;;;13.10;nan;100964.19;4974715;28;97956;-71
2021/01/02 11:55:05;;;;;;;15.07;12.15;;;;;;;13.15;nan;100967.06;4960669;28;97667;-69
2021/01/02 11:57:33;;;;;;;17.90;10.70;;;;;;;13.23;nan;100963.94;4976254;28;97830;-69
2021/01/02 12:00:05;;;;;;;17.02;12.05;;;;;;;13.23;nan;100965.66;4959815;28;98487;-70